sensor_id;sensor_type;location;lat;lon;timestamp;P1;durP1;ratioP1;P2;durP2;ratioP2
11092;SDS011;5600;50.864;6.102;2023-03-01T00:02:21;52.10;;;7.30;;
11092;SDS011;5600;50.864;6.102;2023-03-01T00:05:22;45.17;;;8.00;;
11092;SDS011;5600;50.864;6.102;2023-03-01T00:08:24;41.27;;;6.93;;
11092;SDS011;5600;50.864;6.102;2023-03-01T00:11:26;49.47;;;7.77;;
11092;SDS011;5600;50.864;6.102;2023-03-01T00:14:28;46.93;;;8.17;;
11092;SDS011;5600;50.864;6.102;2023-03-01T00:17:29;52.57;;;7.97;;
11092;SDS011;5600;50.864;6.102;2023-03-01T00:20:30;46.50;;;7.60;;
11092;SDS011;5600;50.864;6.102;2023-03-01T00:23:30;53.57;;;7.47;;
11092;SDS011;5600;50.864;6.102;2023-03-01T00:26:33;44.67;;;6.83;;
11092;SDS011;5600;50.864;6.102;2023-03-01T00:29:34;45.30;;;7.60;;
11092;SDS011;5600;50.864;6.102;2023-03-01T00:32:34;46.90;;;7.80;;
11092;SDS011;5600;50.864;6.102;2023-03-01T00:35:35;43.80;;;7.93;;
11092;SDS011;5600;50.864;6.102;2023-03-01T00:38:37;53.07;;;8.10;;
11092;SDS011;5600;50.864;6.102;2023-03-01T00:41:39;51.40;;;8.37;;
11092;SDS011;5600;50.864;6.102;2023-03-01T00:44:40;27.57;;;6.90;;
11092;SDS011;5600;50.864;6.102;2023-03-01T00:47:41;51.70;;;8.00;;
11092;SDS011;5600;50.864;6.102;2023-03-01T00:50:41;43.23;;;6.80;;
11092;SDS011;5600;50.864;6.102;2023-03-01T00:53:42;44.67;;;8.03;;
11092;SDS011;5600;50.864;6.102;2023-03-01T00:56:43;68.03;;;8.67;;
11092;SDS011;5600;50.864;6.102;2023-03-01T00:59:45;40.43;;;7.27;;
11092;SDS011;5600;50.864;6.102;2023-03-01T01:02:45;47.10;;;7.93;;
11092;SDS011;5600;50.864;6.102;2023-03-01T01:05:46;52.60;;;8.17;;
11092;SDS011;5600;50.864;6.102;2023-03-01T01:08:48;41.60;;;7.60;;
11092;SDS011;5600;50.864;6.102;2023-03-01T01:11:50;45.00;;;8.37;;
11092;SDS011;5600;50.864;6.102;2023-03-01T01:14:51;50.93;;;8.43;;
11092;SDS011;5600;50.864;6.102;2023-03-01T01:17:52;43.07;;;8.07;;
11092;SDS011;5600;50.864;6.102;2023-03-01T01:20:52;39.83;;;7.37;;
11092;SDS011;5600;50.864;6.102;2023-03-01T01:23:54;45.63;;;7.83;;
11092;SDS011;5600;50.864;6.102;2023-03-01T01:26:56;50.70;;;8.10;;
11092;SDS011;5600;50.864;6.102;2023-03-01T01:29:57;47.27;;;7.80;;
11092;SDS011;5600;50.864;6.102;2023-03-01T01:32:57;41.27;;;7.77;;
11092;SDS011;5600;50.864;6.102;2023-03-01T01:35:58;33.17;;;7.07;;
11092;SDS011;5600;50.864;6.102;2023-03-01T01:38:59;44.93;;;7.50;;
11092;SDS011;5600;50.864;6.102;2023-03-01T01:42:01;40.47;;;7.10;;
11092;SDS011;5600;50.864;6.102;2023-03-01T01:45:35;50.70;;;8.07;;
11092;SDS011;5600;50.864;6.102;2023-03-01T01:48:40;46.93;;;7.90;;
11092;SDS011;5600;50.864;6.102;2023-03-01T01:51:44;47.73;;;8.13;;
11092;SDS011;5600;50.864;6.102;2023-03-01T01:54:57;49.30;;;7.80;;
11092;SDS011;5600;50.864;6.102;2023-03-01T01:58:04;47.57;;;8.00;;
11092;SDS011;5600;50.864;6.102;2023-03-01T02:01:07;49.07;;;7.53;;
11092;SDS011;5600;50.864;6.102;2023-03-01T02:04:08;41.93;;;7.27;;
11092;SDS011;5600;50.864;6.102;2023-03-01T02:07:15;29.50;;;6.83;;
11092;SDS011;5600;50.864;6.102;2023-03-01T02:10:22;46.27;;;7.37;;
11092;SDS011;5600;50.864;6.102;2023-03-01T02:13:24;57.10;;;7.97;;
11092;SDS011;5600;50.864;6.102;2023-03-01T02:16:25;40.07;;;7.80;;
11092;SDS011;5600;50.864;6.102;2023-03-01T02:22:39;50.23;;;7.67;;
11092;SDS011;5600;50.864;6.102;2023-03-01T02:29:16;52.87;;;8.40;;
11092;SDS011;5600;50.864;6.102;2023-03-01T02:32:17;53.63;;;7.93;;
11092;SDS011;5600;50.864;6.102;2023-03-01T02:35:25;59.10;;;8.47;;
11092;SDS011;5600;50.864;6.102;2023-03-01T02:38:25;53.97;;;7.73;;
11092;SDS011;5600;50.864;6.102;2023-03-01T02:41:27;53.10;;;8.00;;
11092;SDS011;5600;50.864;6.102;2023-03-01T02:44:31;57.30;;;7.90;;
11092;SDS011;5600;50.864;6.102;2023-03-01T02:47:31;58.13;;;8.13;;
11092;SDS011;5600;50.864;6.102;2023-03-01T02:50:44;61.30;;;8.00;;
11092;SDS011;5600;50.864;6.102;2023-03-01T02:57:17;47.43;;;7.73;;
11092;SDS011;5600;50.864;6.102;2023-03-01T03:00:23;50.33;;;8.30;;
11092;SDS011;5600;50.864;6.102;2023-03-01T03:03:27;51.57;;;7.77;;
11092;SDS011;5600;50.864;6.102;2023-03-01T03:06:28;52.80;;;8.40;;
11092;SDS011;5600;50.864;6.102;2023-03-01T03:09:29;49.07;;;7.63;;
11092;SDS011;5600;50.864;6.102;2023-03-01T03:12:30;61.13;;;8.17;;
11092;SDS011;5600;50.864;6.102;2023-03-01T03:15:31;59.97;;;9.13;;
11092;SDS011;5600;50.864;6.102;2023-03-01T03:18:36;60.07;;;8.60;;
11092;SDS011;5600;50.864;6.102;2023-03-01T03:21:36;53.23;;;8.97;;
11092;SDS011;5600;50.864;6.102;2023-03-01T03:24:37;38.63;;;7.13;;
11092;SDS011;5600;50.864;6.102;2023-03-01T03:27:39;39.17;;;7.57;;
11092;SDS011;5600;50.864;6.102;2023-03-01T03:30:42;48.77;;;7.57;;
11092;SDS011;5600;50.864;6.102;2023-03-01T03:33:43;43.03;;;8.00;;
11092;SDS011;5600;50.864;6.102;2023-03-01T03:36:44;61.33;;;8.80;;
11092;SDS011;5600;50.864;6.102;2023-03-01T03:39:44;48.80;;;8.53;;
11092;SDS011;5600;50.864;6.102;2023-03-01T03:42:45;53.37;;;8.30;;
11092;SDS011;5600;50.864;6.102;2023-03-01T03:45:46;70.27;;;9.23;;
11092;SDS011;5600;50.864;6.102;2023-03-01T03:48:48;49.27;;;8.33;;
11092;SDS011;5600;50.864;6.102;2023-03-01T03:51:50;40.43;;;7.93;;
11092;SDS011;5600;50.864;6.102;2023-03-01T03:54:50;50.83;;;8.67;;
11092;SDS011;5600;50.864;6.102;2023-03-01T03:57:51;47.57;;;8.63;;
11092;SDS011;5600;50.864;6.102;2023-03-01T04:00:55;46.07;;;8.57;;
11092;SDS011;5600;50.864;6.102;2023-03-01T04:03:56;58.50;;;8.93;;
11092;SDS011;5600;50.864;6.102;2023-03-01T04:07:04;49.37;;;8.73;;
11092;SDS011;5600;50.864;6.102;2023-03-01T04:10:05;56.33;;;9.33;;
11092;SDS011;5600;50.864;6.102;2023-03-01T04:13:09;62.20;;;10.43;;
11092;SDS011;5600;50.864;6.102;2023-03-01T04:16:12;56.70;;;11.07;;
11092;SDS011;5600;50.864;6.102;2023-03-01T04:19:13;52.37;;;11.50;;
11092;SDS011;5600;50.864;6.102;2023-03-01T04:22:15;56.93;;;12.33;;
11092;SDS011;5600;50.864;6.102;2023-03-01T04:25:18;59.53;;;12.87;;
11092;SDS011;5600;50.864;6.102;2023-03-01T04:31:27;50.63;;;8.90;;
11092;SDS011;5600;50.864;6.102;2023-03-01T04:34:29;50.50;;;10.37;;
11092;SDS011;5600;50.864;6.102;2023-03-01T04:37:30;95.73;;;21.33;;
11092;SDS011;5600;50.864;6.102;2023-03-01T04:40:31;70.83;;;13.23;;
11092;SDS011;5600;50.864;6.102;2023-03-01T04:43:32;75.17;;;12.00;;
11092;SDS011;5600;50.864;6.102;2023-03-01T04:46:34;62.03;;;10.30;;
11092;SDS011;5600;50.864;6.102;2023-03-01T04:49:35;56.17;;;9.57;;
11092;SDS011;5600;50.864;6.102;2023-03-01T04:52:36;62.30;;;9.77;;
11092;SDS011;5600;50.864;6.102;2023-03-01T04:55:37;58.93;;;9.17;;
11092;SDS011;5600;50.864;6.102;2023-03-01T04:58:37;60.30;;;10.13;;
11092;SDS011;5600;50.864;6.102;2023-03-01T05:01:39;52.53;;;9.13;;
11092;SDS011;5600;50.864;6.102;2023-03-01T05:04:42;60.40;;;10.80;;
11092;SDS011;5600;50.864;6.102;2023-03-01T05:07:43;50.90;;;10.17;;
11092;SDS011;5600;50.864;6.102;2023-03-01T05:10:48;60.60;;;10.47;;
11092;SDS011;5600;50.864;6.102;2023-03-01T05:13:51;36.57;;;9.00;;
11092;SDS011;5600;50.864;6.102;2023-03-01T05:16:54;62.80;;;9.97;;
11092;SDS011;5600;50.864;6.102;2023-03-01T05:20:03;58.50;;;9.10;;
11092;SDS011;5600;50.864;6.102;2023-03-01T05:23:08;59.67;;;10.50;;
11092;SDS011;5600;50.864;6.102;2023-03-01T05:26:09;58.83;;;10.83;;
11092;SDS011;5600;50.864;6.102;2023-03-01T05:29:12;48.70;;;9.70;;
11092;SDS011;5600;50.864;6.102;2023-03-01T05:32:13;56.73;;;11.13;;
11092;SDS011;5600;50.864;6.102;2023-03-01T05:35:16;53.37;;;10.67;;
11092;SDS011;5600;50.864;6.102;2023-03-01T05:38:18;55.23;;;9.90;;
11092;SDS011;5600;50.864;6.102;2023-03-01T05:41:19;56.37;;;9.97;;
11092;SDS011;5600;50.864;6.102;2023-03-01T05:44:20;43.57;;;9.57;;
11092;SDS011;5600;50.864;6.102;2023-03-01T05:47:21;49.07;;;9.30;;
11092;SDS011;5600;50.864;6.102;2023-03-01T05:50:23;46.57;;;9.60;;
11092;SDS011;5600;50.864;6.102;2023-03-01T05:53:26;50.27;;;9.40;;
11092;SDS011;5600;50.864;6.102;2023-03-01T05:56:27;56.70;;;9.93;;
11092;SDS011;5600;50.864;6.102;2023-03-01T05:59:29;69.70;;;10.10;;
11092;SDS011;5600;50.864;6.102;2023-03-01T06:02:30;63.87;;;9.80;;
11092;SDS011;5600;50.864;6.102;2023-03-01T06:05:31;56.30;;;9.57;;
11092;SDS011;5600;50.864;6.102;2023-03-01T06:08:32;74.33;;;10.87;;
11092;SDS011;5600;50.864;6.102;2023-03-01T06:11:34;52.30;;;9.60;;
11092;SDS011;5600;50.864;6.102;2023-03-01T06:14:35;83.73;;;11.37;;
11092;SDS011;5600;50.864;6.102;2023-03-01T06:17:37;86.93;;;11.37;;
11092;SDS011;5600;50.864;6.102;2023-03-01T06:20:40;72.37;;;10.43;;
11092;SDS011;5600;50.864;6.102;2023-03-01T06:23:41;77.50;;;10.90;;
11092;SDS011;5600;50.864;6.102;2023-03-01T06:26:42;105.93;;;12.23;;
11092;SDS011;5600;50.864;6.102;2023-03-01T06:29:43;57.87;;;9.37;;
11092;SDS011;5600;50.864;6.102;2023-03-01T06:32:44;65.13;;;9.83;;
11092;SDS011;5600;50.864;6.102;2023-03-01T06:35:46;65.20;;;10.00;;
11092;SDS011;5600;50.864;6.102;2023-03-01T06:38:47;88.27;;;10.93;;
11092;SDS011;5600;50.864;6.102;2023-03-01T06:41:48;74.23;;;10.60;;
11092;SDS011;5600;50.864;6.102;2023-03-01T06:44:48;76.00;;;10.73;;
11092;SDS011;5600;50.864;6.102;2023-03-01T06:47:49;77.80;;;10.50;;
11092;SDS011;5600;50.864;6.102;2023-03-01T06:50:50;70.20;;;10.57;;
11092;SDS011;5600;50.864;6.102;2023-03-01T06:53:51;72.23;;;10.43;;
11092;SDS011;5600;50.864;6.102;2023-03-01T06:56:52;78.10;;;11.60;;
11092;SDS011;5600;50.864;6.102;2023-03-01T06:59:53;51.43;;;11.80;;
11092;SDS011;5600;50.864;6.102;2023-03-01T07:02:54;55.77;;;12.27;;
11092;SDS011;5600;50.864;6.102;2023-03-01T07:05:58;72.00;;;12.83;;
11092;SDS011;5600;50.864;6.102;2023-03-01T07:08:59;59.13;;;10.73;;
11092;SDS011;5600;50.864;6.102;2023-03-01T07:12:00;53.63;;;10.97;;
11092;SDS011;5600;50.864;6.102;2023-03-01T07:15:02;71.53;;;12.27;;
11092;SDS011;5600;50.864;6.102;2023-03-01T07:18:03;48.80;;;10.27;;
11092;SDS011;5600;50.864;6.102;2023-03-01T07:21:05;62.80;;;12.23;;
11092;SDS011;5600;50.864;6.102;2023-03-01T07:24:07;72.57;;;12.50;;
11092;SDS011;5600;50.864;6.102;2023-03-01T07:27:08;59.17;;;11.83;;
11092;SDS011;5600;50.864;6.102;2023-03-01T07:30:10;54.43;;;11.23;;
11092;SDS011;5600;50.864;6.102;2023-03-01T07:33:11;61.53;;;11.70;;
11092;SDS011;5600;50.864;6.102;2023-03-01T07:36:11;56.47;;;10.80;;
11092;SDS011;5600;50.864;6.102;2023-03-01T07:39:12;48.17;;;11.83;;
11092;SDS011;5600;50.864;6.102;2023-03-01T07:42:12;45.67;;;11.13;;
11092;SDS011;5600;50.864;6.102;2023-03-01T07:45:13;47.83;;;12.37;;
11092;SDS011;5600;50.864;6.102;2023-03-01T07:48:14;56.63;;;14.67;;
11092;SDS011;5600;50.864;6.102;2023-03-01T07:51:15;54.93;;;14.57;;
11092;SDS011;5600;50.864;6.102;2023-03-01T07:54:16;48.20;;;12.97;;
11092;SDS011;5600;50.864;6.102;2023-03-01T07:57:18;68.33;;;12.73;;
11092;SDS011;5600;50.864;6.102;2023-03-01T08:00:19;50.83;;;11.77;;
11092;SDS011;5600;50.864;6.102;2023-03-01T08:03:20;62.07;;;11.57;;
11092;SDS011;5600;50.864;6.102;2023-03-01T08:06:21;81.67;;;12.60;;
11092;SDS011;5600;50.864;6.102;2023-03-01T08:09:21;60.57;;;11.43;;
11092;SDS011;5600;50.864;6.102;2023-03-01T08:12:22;45.27;;;10.33;;
11092;SDS011;5600;50.864;6.102;2023-03-01T08:15:23;46.93;;;10.20;;
11092;SDS011;5600;50.864;6.102;2023-03-01T08:18:24;34.73;;;10.00;;
11092;SDS011;5600;50.864;6.102;2023-03-01T08:21:25;40.50;;;9.70;;
11092;SDS011;5600;50.864;6.102;2023-03-01T08:24:26;55.00;;;11.37;;
11092;SDS011;5600;50.864;6.102;2023-03-01T08:27:27;51.83;;;10.87;;
11092;SDS011;5600;50.864;6.102;2023-03-01T08:30:27;53.23;;;11.63;;
11092;SDS011;5600;50.864;6.102;2023-03-01T08:33:28;51.93;;;10.67;;
11092;SDS011;5600;50.864;6.102;2023-03-01T08:36:31;61.17;;;11.23;;
11092;SDS011;5600;50.864;6.102;2023-03-01T08:39:35;68.33;;;11.43;;
11092;SDS011;5600;50.864;6.102;2023-03-01T08:42:36;58.70;;;10.80;;
11092;SDS011;5600;50.864;6.102;2023-03-01T08:45:37;77.13;;;12.00;;
11092;SDS011;5600;50.864;6.102;2023-03-01T08:48:38;67.50;;;11.63;;
11092;SDS011;5600;50.864;6.102;2023-03-01T08:51:39;61.40;;;12.13;;
11092;SDS011;5600;50.864;6.102;2023-03-01T08:54:40;65.53;;;11.93;;
11092;SDS011;5600;50.864;6.102;2023-03-01T08:57:41;61.57;;;11.63;;
11092;SDS011;5600;50.864;6.102;2023-03-01T09:00:41;60.33;;;12.07;;
11092;SDS011;5600;50.864;6.102;2023-03-01T09:03:42;61.57;;;11.67;;
11092;SDS011;5600;50.864;6.102;2023-03-01T09:06:45;89.33;;;16.23;;
11092;SDS011;5600;50.864;6.102;2023-03-01T09:09:46;65.93;;;12.23;;
11092;SDS011;5600;50.864;6.102;2023-03-01T09:12:47;62.00;;;12.07;;
11092;SDS011;5600;50.864;6.102;2023-03-01T09:15:47;64.17;;;12.40;;
11092;SDS011;5600;50.864;6.102;2023-03-01T09:18:49;64.53;;;12.60;;
11092;SDS011;5600;50.864;6.102;2023-03-01T09:21:54;38.20;;;11.27;;
11092;SDS011;5600;50.864;6.102;2023-03-01T09:24:56;74.77;;;12.73;;
11092;SDS011;5600;50.864;6.102;2023-03-01T09:27:59;69.33;;;13.27;;
11092;SDS011;5600;50.864;6.102;2023-03-01T09:31:00;55.90;;;11.73;;
11092;SDS011;5600;50.864;6.102;2023-03-01T09:34:01;67.43;;;12.37;;
11092;SDS011;5600;50.864;6.102;2023-03-01T09:37:02;70.97;;;13.53;;
11092;SDS011;5600;50.864;6.102;2023-03-01T09:40:04;54.30;;;11.60;;
11092;SDS011;5600;50.864;6.102;2023-03-01T09:43:08;57.63;;;11.73;;
11092;SDS011;5600;50.864;6.102;2023-03-01T09:46:31;60.50;;;11.60;;
11092;SDS011;5600;50.864;6.102;2023-03-01T09:49:39;64.30;;;12.53;;
11092;SDS011;5600;50.864;6.102;2023-03-01T09:53:02;107.83;;;14.50;;
11092;SDS011;5600;50.864;6.102;2023-03-01T09:59:39;80.03;;;12.30;;
11092;SDS011;5600;50.864;6.102;2023-03-01T10:06:21;60.13;;;11.33;;
11092;SDS011;5600;50.864;6.102;2023-03-01T10:09:25;62.67;;;12.37;;
11092;SDS011;5600;50.864;6.102;2023-03-01T10:12:33;52.27;;;11.47;;
11092;SDS011;5600;50.864;6.102;2023-03-01T10:15:39;67.37;;;11.67;;
11092;SDS011;5600;50.864;6.102;2023-03-01T10:18:45;72.27;;;11.90;;
11092;SDS011;5600;50.864;6.102;2023-03-01T10:21:51;82.00;;;13.13;;
11092;SDS011;5600;50.864;6.102;2023-03-01T10:24:54;55.97;;;12.37;;
11092;SDS011;5600;50.864;6.102;2023-03-01T10:28:44;61.70;;;11.67;;
11092;SDS011;5600;50.864;6.102;2023-03-01T10:31:26;59.03;;;12.33;;
11092;SDS011;5600;50.864;6.102;2023-03-01T10:34:37;60.07;;;12.27;;
11092;SDS011;5600;50.864;6.102;2023-03-01T10:37:37;108.93;;;13.67;;
11092;SDS011;5600;50.864;6.102;2023-03-01T10:41:06;57.10;;;11.80;;
11092;SDS011;5600;50.864;6.102;2023-03-01T10:44:08;52.50;;;11.37;;
11092;SDS011;5600;50.864;6.102;2023-03-01T10:47:37;58.30;;;11.53;;
11092;SDS011;5600;50.864;6.102;2023-03-01T10:50:40;70.43;;;11.40;;
11092;SDS011;5600;50.864;6.102;2023-03-01T10:53:49;81.20;;;12.87;;
11092;SDS011;5600;50.864;6.102;2023-03-01T10:56:52;84.00;;;12.93;;
11092;SDS011;5600;50.864;6.102;2023-03-01T11:03:26;55.57;;;11.67;;
11092;SDS011;5600;50.864;6.102;2023-03-01T11:06:29;60.73;;;11.67;;
11092;SDS011;5600;50.864;6.102;2023-03-01T11:09:31;52.83;;;11.00;;
11092;SDS011;5600;50.864;6.102;2023-03-01T11:12:37;54.47;;;11.57;;
11092;SDS011;5600;50.864;6.102;2023-03-01T11:15:38;61.13;;;11.53;;
11092;SDS011;5600;50.864;6.102;2023-03-01T11:18:40;52.93;;;11.23;;
11092;SDS011;5600;50.864;6.102;2023-03-01T11:21:41;63.77;;;11.63;;
11092;SDS011;5600;50.864;6.102;2023-03-01T11:24:55;81.07;;;13.17;;
11092;SDS011;5600;50.864;6.102;2023-03-01T11:27:58;64.80;;;11.80;;
11092;SDS011;5600;50.864;6.102;2023-03-01T11:31:05;67.83;;;12.03;;
11092;SDS011;5600;50.864;6.102;2023-03-01T11:34:15;53.87;;;11.63;;
11092;SDS011;5600;50.864;6.102;2023-03-01T11:37:26;53.43;;;11.80;;
11092;SDS011;5600;50.864;6.102;2023-03-01T11:40:35;77.80;;;12.47;;
11092;SDS011;5600;50.864;6.102;2023-03-01T11:47:14;64.47;;;11.37;;
11092;SDS011;5600;50.864;6.102;2023-03-01T11:50:29;52.50;;;12.20;;
11092;SDS011;5600;50.864;6.102;2023-03-01T11:56:35;68.50;;;12.77;;
11092;SDS011;5600;50.864;6.102;2023-03-01T12:06:09;59.70;;;12.30;;
11092;SDS011;5600;50.864;6.102;2023-03-01T12:16:20;62.63;;;12.27;;
11092;SDS011;5600;50.864;6.102;2023-03-01T12:23:00;84.10;;;13.73;;
11092;SDS011;5600;50.864;6.102;2023-03-01T12:29:36;54.50;;;12.43;;
11092;SDS011;5600;50.864;6.102;2023-03-01T12:39:40;81.53;;;13.03;;
11092;SDS011;5600;50.864;6.102;2023-03-01T12:46:21;68.17;;;12.43;;
11092;SDS011;5600;50.864;6.102;2023-03-01T12:49:38;59.63;;;11.70;;
11092;SDS011;5600;50.864;6.102;2023-03-01T12:52:52;63.83;;;11.53;;
11092;SDS011;5600;50.864;6.102;2023-03-01T12:55:56;72.57;;;11.93;;
11092;SDS011;5600;50.864;6.102;2023-03-01T12:59:02;70.80;;;12.47;;
11092;SDS011;5600;50.864;6.102;2023-03-01T13:02:29;53.03;;;11.10;;
11092;SDS011;5600;50.864;6.102;2023-03-01T13:05:41;63.57;;;11.00;;
11092;SDS011;5600;50.864;6.102;2023-03-01T13:12:03;62.97;;;11.53;;
11092;SDS011;5600;50.864;6.102;2023-03-01T13:15:03;51.93;;;10.23;;
11092;SDS011;5600;50.864;6.102;2023-03-01T13:21:30;72.17;;;11.30;;
11092;SDS011;5600;50.864;6.102;2023-03-01T13:24:41;68.73;;;11.07;;
11092;SDS011;5600;50.864;6.102;2023-03-01T13:27:43;72.47;;;11.43;;
11092;SDS011;5600;50.864;6.102;2023-03-01T13:30:44;85.27;;;12.57;;
11092;SDS011;5600;50.864;6.102;2023-03-01T13:33:51;54.00;;;11.23;;
11092;SDS011;5600;50.864;6.102;2023-03-01T13:37:08;79.23;;;11.53;;
11092;SDS011;5600;50.864;6.102;2023-03-01T13:46:49;74.67;;;12.17;;
11092;SDS011;5600;50.864;6.102;2023-03-01T13:50:00;61.63;;;10.63;;
11092;SDS011;5600;50.864;6.102;2023-03-01T13:53:03;78.23;;;11.80;;
11092;SDS011;5600;50.864;6.102;2023-03-01T13:56:12;76.03;;;12.73;;
11092;SDS011;5600;50.864;6.102;2023-03-01T13:59:22;78.70;;;12.07;;
11092;SDS011;5600;50.864;6.102;2023-03-01T14:02:26;72.77;;;12.13;;
11092;SDS011;5600;50.864;6.102;2023-03-01T14:05:27;61.50;;;11.90;;
11092;SDS011;5600;50.864;6.102;2023-03-01T14:08:29;64.33;;;11.37;;
11092;SDS011;5600;50.864;6.102;2023-03-01T14:11:43;64.50;;;11.00;;
11092;SDS011;5600;50.864;6.102;2023-03-01T14:21:33;96.07;;;12.13;;
11092;SDS011;5600;50.864;6.102;2023-03-01T14:24:35;74.43;;;12.00;;
11092;SDS011;5600;50.864;6.102;2023-03-01T14:27:41;92.50;;;12.17;;
11092;SDS011;5600;50.864;6.102;2023-03-01T14:33:53;59.43;;;10.50;;
11092;SDS011;5600;50.864;6.102;2023-03-01T14:36:55;83.17;;;11.10;;
11092;SDS011;5600;50.864;6.102;2023-03-01T14:39:57;72.67;;;11.13;;
11092;SDS011;5600;50.864;6.102;2023-03-01T14:42:59;80.73;;;11.57;;
11092;SDS011;5600;50.864;6.102;2023-03-01T14:46:01;76.13;;;10.73;;
11092;SDS011;5600;50.864;6.102;2023-03-01T14:49:04;78.20;;;10.77;;
11092;SDS011;5600;50.864;6.102;2023-03-01T14:52:45;55.00;;;9.93;;
11092;SDS011;5600;50.864;6.102;2023-03-01T14:55:43;56.97;;;9.43;;
11092;SDS011;5600;50.864;6.102;2023-03-01T14:58:46;71.47;;;10.00;;
11092;SDS011;5600;50.864;6.102;2023-03-01T15:01:53;78.20;;;10.27;;
11092;SDS011;5600;50.864;6.102;2023-03-01T15:04:57;77.33;;;10.50;;
11092;SDS011;5600;50.864;6.102;2023-03-01T15:08:04;58.80;;;9.13;;
11092;SDS011;5600;50.864;6.102;2023-03-01T15:11:20;71.60;;;10.03;;
11092;SDS011;5600;50.864;6.102;2023-03-01T15:14:50;53.03;;;9.33;;
11092;SDS011;5600;50.864;6.102;2023-03-01T15:17:53;53.23;;;8.70;;
11092;SDS011;5600;50.864;6.102;2023-03-01T15:20:56;72.53;;;10.40;;
11092;SDS011;5600;50.864;6.102;2023-03-01T15:27:20;45.17;;;7.83;;
11092;SDS011;5600;50.864;6.102;2023-03-01T15:30:24;58.20;;;8.30;;
11092;SDS011;5600;50.864;6.102;2023-03-01T15:33:35;77.77;;;9.23;;
11092;SDS011;5600;50.864;6.102;2023-03-01T15:39:46;55.77;;;8.63;;
11092;SDS011;5600;50.864;6.102;2023-03-01T15:42:54;71.10;;;9.20;;
11092;SDS011;5600;50.864;6.102;2023-03-01T15:45:57;66.40;;;9.40;;
11092;SDS011;5600;50.864;6.102;2023-03-01T15:48:58;75.80;;;9.33;;
11092;SDS011;5600;50.864;6.102;2023-03-01T15:55:31;45.60;;;7.87;;
11092;SDS011;5600;50.864;6.102;2023-03-01T15:58:33;55.93;;;8.77;;
11092;SDS011;5600;50.864;6.102;2023-03-01T16:01:34;39.60;;;7.53;;
11092;SDS011;5600;50.864;6.102;2023-03-01T16:04:35;50.17;;;8.70;;
11092;SDS011;5600;50.864;6.102;2023-03-01T16:07:36;70.67;;;8.83;;
11092;SDS011;5600;50.864;6.102;2023-03-01T16:10:40;90.83;;;10.03;;
11092;SDS011;5600;50.864;6.102;2023-03-01T16:13:44;66.93;;;9.30;;
11092;SDS011;5600;50.864;6.102;2023-03-01T16:16:46;85.10;;;9.67;;
11092;SDS011;5600;50.864;6.102;2023-03-01T16:19:48;59.27;;;8.43;;
11092;SDS011;5600;50.864;6.102;2023-03-01T16:22:49;41.73;;;7.90;;
11092;SDS011;5600;50.864;6.102;2023-03-01T16:25:50;72.73;;;9.50;;
11092;SDS011;5600;50.864;6.102;2023-03-01T16:28:53;72.57;;;9.73;;
11092;SDS011;5600;50.864;6.102;2023-03-01T16:31:56;55.00;;;8.67;;
11092;SDS011;5600;50.864;6.102;2023-03-01T16:34:57;72.33;;;9.50;;
11092;SDS011;5600;50.864;6.102;2023-03-01T16:37:58;63.00;;;8.70;;
11092;SDS011;5600;50.864;6.102;2023-03-01T16:41:00;46.37;;;8.10;;
11092;SDS011;5600;50.864;6.102;2023-03-01T16:44:01;71.97;;;9.60;;
11092;SDS011;5600;50.864;6.102;2023-03-01T16:47:02;54.93;;;8.87;;
11092;SDS011;5600;50.864;6.102;2023-03-01T16:50:03;72.30;;;9.57;;
11092;SDS011;5600;50.864;6.102;2023-03-01T16:53:04;65.10;;;9.07;;
11092;SDS011;5600;50.864;6.102;2023-03-01T16:56:06;56.70;;;8.90;;
11092;SDS011;5600;50.864;6.102;2023-03-01T16:59:10;71.47;;;9.50;;
11092;SDS011;5600;50.864;6.102;2023-03-01T17:02:14;71.07;;;9.40;;
11092;SDS011;5600;50.864;6.102;2023-03-01T17:05:19;100.13;;;11.20;;
11092;SDS011;5600;50.864;6.102;2023-03-01T17:08:22;63.17;;;9.53;;
11092;SDS011;5600;50.864;6.102;2023-03-01T17:11:23;38.47;;;8.10;;
11092;SDS011;5600;50.864;6.102;2023-03-01T17:14:23;77.43;;;10.20;;
11092;SDS011;5600;50.864;6.102;2023-03-01T17:17:24;51.20;;;8.50;;
11092;SDS011;5600;50.864;6.102;2023-03-01T17:20:25;54.33;;;8.97;;
11092;SDS011;5600;50.864;6.102;2023-03-01T17:23:27;47.20;;;8.30;;
11092;SDS011;5600;50.864;6.102;2023-03-01T17:26:29;91.77;;;10.30;;
11092;SDS011;5600;50.864;6.102;2023-03-01T17:29:30;51.93;;;8.30;;
11092;SDS011;5600;50.864;6.102;2023-03-01T17:32:31;58.67;;;9.07;;
11092;SDS011;5600;50.864;6.102;2023-03-01T17:35:32;62.77;;;9.13;;
11092;SDS011;5600;50.864;6.102;2023-03-01T17:38:37;68.27;;;9.90;;
11092;SDS011;5600;50.864;6.102;2023-03-01T17:41:37;60.50;;;8.97;;
11092;SDS011;5600;50.864;6.102;2023-03-01T17:44:38;85.80;;;10.73;;
11092;SDS011;5600;50.864;6.102;2023-03-01T17:47:39;63.87;;;10.30;;
11092;SDS011;5600;50.864;6.102;2023-03-01T17:50:39;67.77;;;9.90;;
11092;SDS011;5600;50.864;6.102;2023-03-01T17:53:40;63.50;;;9.60;;
11092;SDS011;5600;50.864;6.102;2023-03-01T17:56:41;87.50;;;11.23;;
11092;SDS011;5600;50.864;6.102;2023-03-01T17:59:42;55.60;;;9.27;;
11092;SDS011;5600;50.864;6.102;2023-03-01T18:02:43;51.77;;;9.60;;
11092;SDS011;5600;50.864;6.102;2023-03-01T18:05:43;69.00;;;9.90;;
11092;SDS011;5600;50.864;6.102;2023-03-01T18:08:45;49.53;;;8.90;;
11092;SDS011;5600;50.864;6.102;2023-03-01T18:11:46;48.77;;;8.83;;
11092;SDS011;5600;50.864;6.102;2023-03-01T18:14:50;78.30;;;9.87;;
11092;SDS011;5600;50.864;6.102;2023-03-01T18:17:54;53.23;;;9.03;;
11092;SDS011;5600;50.864;6.102;2023-03-01T18:20:58;52.53;;;8.83;;
11092;SDS011;5600;50.864;6.102;2023-03-01T18:23:59;62.70;;;8.80;;
11092;SDS011;5600;50.864;6.102;2023-03-01T18:27:01;82.47;;;9.43;;
11092;SDS011;5600;50.864;6.102;2023-03-01T18:30:05;65.20;;;8.47;;
11092;SDS011;5600;50.864;6.102;2023-03-01T18:33:07;61.70;;;8.60;;
11092;SDS011;5600;50.864;6.102;2023-03-01T18:36:14;65.80;;;8.47;;
11092;SDS011;5600;50.864;6.102;2023-03-01T18:39:29;66.50;;;9.20;;
11092;SDS011;5600;50.864;6.102;2023-03-01T18:42:30;48.80;;;7.60;;
11092;SDS011;5600;50.864;6.102;2023-03-01T18:45:30;57.63;;;10.13;;
11092;SDS011;5600;50.864;6.102;2023-03-01T18:48:31;59.03;;;8.83;;
11092;SDS011;5600;50.864;6.102;2023-03-01T18:51:32;36.53;;;6.90;;
11092;SDS011;5600;50.864;6.102;2023-03-01T18:54:34;48.63;;;7.77;;
11092;SDS011;5600;50.864;6.102;2023-03-01T18:57:35;47.70;;;7.60;;
11092;SDS011;5600;50.864;6.102;2023-03-01T19:00:35;60.23;;;8.23;;
11092;SDS011;5600;50.864;6.102;2023-03-01T19:03:36;54.10;;;8.33;;
11092;SDS011;5600;50.864;6.102;2023-03-01T19:06:37;56.53;;;7.90;;
11092;SDS011;5600;50.864;6.102;2023-03-01T19:09:38;68.63;;;8.73;;
11092;SDS011;5600;50.864;6.102;2023-03-01T19:12:39;57.30;;;8.40;;
11092;SDS011;5600;50.864;6.102;2023-03-01T19:15:40;60.33;;;8.57;;
11092;SDS011;5600;50.864;6.102;2023-03-01T19:18:43;69.27;;;9.20;;
11092;SDS011;5600;50.864;6.102;2023-03-01T19:21:49;34.73;;;7.37;;
11092;SDS011;5600;50.864;6.102;2023-03-01T19:24:49;59.30;;;9.17;;
11092;SDS011;5600;50.864;6.102;2023-03-01T19:27:50;44.77;;;7.97;;
11092;SDS011;5600;50.864;6.102;2023-03-01T19:30:51;45.13;;;7.67;;
11092;SDS011;5600;50.864;6.102;2023-03-01T19:33:56;46.93;;;7.87;;
11092;SDS011;5600;50.864;6.102;2023-03-01T19:36:57;91.23;;;9.57;;
11092;SDS011;5600;50.864;6.102;2023-03-01T19:39:58;61.13;;;9.10;;
11092;SDS011;5600;50.864;6.102;2023-03-01T19:42:59;48.40;;;7.57;;
11092;SDS011;5600;50.864;6.102;2023-03-01T19:45:59;49.77;;;8.03;;
11092;SDS011;5600;50.864;6.102;2023-03-01T19:49:01;41.60;;;7.63;;
11092;SDS011;5600;50.864;6.102;2023-03-01T19:52:02;56.43;;;8.53;;